Time;durP1;ratioP1;P1;durP2;ratioP2;P2;SDS_P1;SDS_P2;PMS_P1;PMS_P2;Temp;Humidity;BMP_temperature;BMP_pressure;BME280_temperature;BME280_humidity;BME280_pressure;Samples;Min_cycle;Max_cycle;Signal;HPM_P1;HPM_P2
2023/01/05 00:01:58;;;;;;;0.90;0.57;;;;;;;;;;5011156;28;20434;-62
2023/01/05 00:04:24;;;;;;;1.00;0.60;;;;;;;;;;4957661;28;20512;-58
2023/01/05 00:06:50;;;;;;;1.00;0.60;;;;;;;;;;5005767;28;20412;-57
2023/01/05 00:09:17;;;;;;;1.10;0.80;;;;;;;;;;5000741;28;20535;-61
2023/01/05 00:22:50;;;;;;;0.90;0.60;;;;;;;;;;4989446;28;20825;-59
2023/01/05 00:25:20;;;;;;;1.20;0.60;;;;;;;;;;4988503;28;20463;-59
2023/01/05 00:27:50;;;;;;;1.27;0.70;;;;;;;;;;5016667;28;20435;-61
2023/01/05 00:30:17;;;;;;;1.00;0.60;;;;;;;;;;5010809;28;20464;-59
2023/01/05 00:32:43;;;;;;;1.00;0.50;;;;;;;;;;5021609;28;20455;-61
2023/01/05 00:35:09;;;;;;;0.90;0.50;;;;;;;;;;5013444;28;20436;-59
2023/01/05 00:37:36;;;;;;;0.90;0.60;;;;;;;;;;5009115;28;20464;-61
2023/01/05 00:40:03;;;;;;;2.27;0.70;;;;;;;;;;4965532;28;20475;-58
2023/01/05 00:42:29;;;;;;;1.00;0.70;;;;;;;;;;5018766;28;20425;-62
2023/01/05 00:44:54;;;;;;;1.37;0.80;;;;;;;;;;4987778;28;20437;-63
2023/01/05 00:47:20;;;;;;;1.40;0.70;;;;;;;;;;5011166;28;20440;-62
2023/01/05 00:49:46;;;;;;;0.97;0.53;;;;;;;;;;5000624;28;20436;-61
2023/01/05 00:52:12;;;;;;;1.10;0.70;;;;;;;;;;5012027;28;20467;-61
2023/01/05 00:54:38;;;;;;;1.00;0.60;;;;;;;;;;4986340;28;20448;-62
2023/01/05 00:57:06;;;;;;;1.20;0.70;;;;;;;;;;5010210;28;20416;-63
2023/01/05 00:59:32;;;;;;;1.10;0.70;;;;;;;;;;5008189;28;20419;-60
2023/01/05 01:01:57;;;;;;;1.00;0.60;;;;;;;;;;5012977;28;21171;-58
2023/01/05 01:04:23;;;;;;;0.93;0.50;;;;;;;;;;5006812;28;21369;-61
2023/01/05 01:06:50;;;;;;;1.53;0.57;;;;;;;;;;5012499;28;20951;-61
2023/01/05 01:09:22;;;;;;;0.90;0.50;;;;;;;;;;4971795;28;20564;-61
2023/01/05 01:11:48;;;;;;;1.23;0.77;;;;;;;;;;5013850;28;20443;-60
2023/01/05 01:14:14;;;;;;;0.90;0.50;;;;;;;;;;4989007;28;20440;-62
2023/01/05 01:16:41;;;;;;;0.90;0.53;;;;;;;;;;5007526;28;20491;-63
2023/01/05 01:19:07;;;;;;;0.90;0.50;;;;;;;;;;5007933;28;20563;-61
2023/01/05 01:21:33;;;;;;;1.17;1.00;;;;;;;;;;5003532;28;20463;-60
2023/01/05 01:23:59;;;;;;;1.00;0.50;;;;;;;;;;5002600;28;20483;-62
2023/01/05 01:26:25;;;;;;;1.00;0.60;;;;;;;;;;4982908;28;20227;-61
2023/01/05 01:28:51;;;;;;;1.00;0.60;;;;;;;;;;5009548;28;20435;-61
2023/01/05 01:31:17;;;;;;;1.00;0.60;;;;;;;;;;4998947;28;20460;-61
2023/01/05 01:33:42;;;;;;;0.90;0.60;;;;;;;;;;5003004;28;20455;-60
2023/01/05 01:36:09;;;;;;;2.10;0.70;;;;;;;;;;4983119;28;20444;-61
2023/01/05 01:38:35;;;;;;;0.90;0.50;;;;;;;;;;4986965;28;21067;-60
2023/01/05 01:41:01;;;;;;;1.03;0.70;;;;;;;;;;4995736;28;20427;-61
2023/01/05 01:43:39;;;;;;;1.87;0.53;;;;;;;;;;4967625;28;20459;-60
2023/01/05 01:46:05;;;;;;;0.90;0.50;;;;;;;;;;5003220;28;20737;-65
2023/01/05 01:48:31;;;;;;;0.90;0.60;;;;;;;;;;4983769;28;20810;-58
2023/01/05 01:50:57;;;;;;;1.00;0.60;;;;;;;;;;5010253;28;20439;-57
2023/01/05 01:53:24;;;;;;;0.90;0.43;;;;;;;;;;5002830;28;20173;-59
2023/01/05 01:55:51;;;;;;;1.00;0.50;;;;;;;;;;4999403;28;20427;-56
2023/01/05 01:58:17;;;;;;;0.90;0.60;;;;;;;;;;4966878;28;20479;-58
2023/01/05 02:00:43;;;;;;;0.90;0.50;;;;;;;;;;5010278;28;20944;-58
2023/01/05 02:03:09;;;;;;;1.10;0.60;;;;;;;;;;5005576;28;20489;-59
2023/01/05 02:05:36;;;;;;;0.90;0.40;;;;;;;;;;5009323;28;20432;-58
2023/01/05 02:08:02;;;;;;;1.37;0.60;;;;;;;;;;4990397;28;20444;-58
2023/01/05 02:10:34;;;;;;;1.00;0.60;;;;;;;;;;5009597;28;20412;-58
2023/01/05 02:13:24;;;;;;;0.90;0.50;;;;;;;;;;4986162;28;20441;-59
2023/01/05 02:15:56;;;;;;;1.57;0.60;;;;;;;;;;5001501;28;20440;-60
2023/01/05 02:18:44;;;;;;;1.27;0.80;;;;;;;;;;4965859;28;20467;-59
2023/01/05 02:21:25;;;;;;;2.20;0.50;;;;;;;;;;4982559;28;20432;-59
2023/01/05 02:23:57;;;;;;;0.90;0.50;;;;;;;;;;5011999;28;20447;-61
2023/01/05 02:26:29;;;;;;;1.20;0.60;;;;;;;;;;4981021;28;20439;-60
2023/01/05 02:29:02;;;;;;;0.90;0.50;;;;;;;;;;4996198;28;20455;-60
2023/01/05 02:31:29;;;;;;;0.90;0.50;;;;;;;;;;4993924;28;20447;-59
2023/01/05 02:34:22;;;;;;;1.47;0.60;;;;;;;;;;4985161;28;20440;-59
2023/01/05 02:36:52;;;;;;;0.90;0.40;;;;;;;;;;4986803;28;20460;-61
2023/01/05 02:39:24;;;;;;;0.97;0.57;;;;;;;;;;5007488;28;20557;-60
2023/01/05 02:41:50;;;;;;;0.90;0.50;;;;;;;;;;5003306;28;20494;-59
2023/01/05 02:44:17;;;;;;;0.93;0.53;;;;;;;;;;5011393;28;20433;-59
2023/01/05 02:46:43;;;;;;;0.90;0.50;;;;;;;;;;4959100;28;20470;-62
2023/01/05 02:49:09;;;;;;;0.90;0.50;;;;;;;;;;4998376;28;20431;-62
2023/01/05 02:51:36;;;;;;;1.17;0.60;;;;;;;;;;5010001;28;21420;-58
2023/01/05 02:54:04;;;;;;;0.90;0.50;;;;;;;;;;4997181;28;20437;-58
2023/01/05 02:56:32;;;;;;;1.10;0.53;;;;;;;;;;4996277;28;20432;-60
2023/01/05 02:59:00;;;;;;;0.90;0.50;;;;;;;;;;4978402;28;20487;-61
2023/01/05 03:01:31;;;;;;;0.90;0.50;;;;;;;;;;4978102;28;20509;-60
2023/01/05 03:03:57;;;;;;;0.90;0.57;;;;;;;;;;4989656;28;20475;-61
2023/01/05 03:06:45;;;;;;;1.00;0.60;;;;;;;;;;4981321;28;20440;-61
2023/01/05 03:09:11;;;;;;;0.90;0.50;;;;;;;;;;5012068;28;20447;-62
2023/01/05 03:14:27;;;;;;;0.90;0.50;;;;;;;;;;5009217;28;20434;-61
2023/01/05 03:16:53;;;;;;;0.90;0.50;;;;;;;;;;4967134;28;21089;-61
2023/01/05 03:19:35;;;;;;;0.87;0.40;;;;;;;;;;4992011;28;20529;-60
2023/01/05 03:36:02;;;;;;;0.90;0.50;;;;;;;;;;4985163;28;21270;-59
2023/01/05 03:38:34;;;;;;;1.00;0.50;;;;;;;;;;4963481;28;20845;-64
2023/01/05 03:41:01;;;;;;;2.17;0.80;;;;;;;;;;4993747;28;20444;-61
2023/01/05 03:43:27;;;;;;;1.30;0.60;;;;;;;;;;5008129;28;20543;-61
2023/01/05 03:45:53;;;;;;;1.17;0.57;;;;;;;;;;5013243;28;20531;-60
2023/01/05 03:48:19;;;;;;;1.20;0.50;;;;;;;;;;5002716;28;20428;-60
2023/01/05 03:50:45;;;;;;;0.90;0.43;;;;;;;;;;5014502;28;20436;-60
2023/01/05 03:53:11;;;;;;;1.87;0.63;;;;;;;;;;4966666;28;20431;-60
2023/01/05 03:55:37;;;;;;;0.90;0.50;;;;;;;;;;5014513;28;20925;-60
2023/01/05 03:58:03;;;;;;;0.90;0.50;;;;;;;;;;4982923;28;20475;-60
2023/01/05 04:00:29;;;;;;;0.90;0.50;;;;;;;;;;5011780;28;20450;-60
2023/01/05 04:02:55;;;;;;;1.13;0.50;;;;;;;;;;5004961;28;20440;-60
2023/01/05 04:05:21;;;;;;;1.33;0.57;;;;;;;;;;5007227;28;20420;-60
2023/01/05 04:07:47;;;;;;;0.90;0.50;;;;;;;;;;5010109;28;21009;-61
2023/01/05 04:10:13;;;;;;;1.97;0.70;;;;;;;;;;5019033;28;20427;-59
2023/01/05 04:12:39;;;;;;;0.90;0.50;;;;;;;;;;5010831;28;20436;-60
2023/01/05 04:15:05;;;;;;;0.90;0.50;;;;;;;;;;5019240;28;20435;-60
2023/01/05 04:17:31;;;;;;;1.10;0.60;;;;;;;;;;4991464;28;20494;-59
2023/01/05 04:19:57;;;;;;;0.97;0.50;;;;;;;;;;5009626;28;20936;-60
2023/01/05 04:22:23;;;;;;;0.90;0.50;;;;;;;;;;4965776;28;20448;-59
2023/01/05 04:24:49;;;;;;;1.47;0.70;;;;;;;;;;5023753;28;20614;-61
2023/01/05 04:27:15;;;;;;;1.00;0.60;;;;;;;;;;4989126;28;20432;-60
2023/01/05 04:29:41;;;;;;;1.50;0.50;;;;;;;;;;5010936;28;20435;-61
2023/01/05 04:32:07;;;;;;;0.90;0.50;;;;;;;;;;5012807;28;20185;-60
2023/01/05 04:34:33;;;;;;;1.00;0.50;;;;;;;;;;5016225;28;20442;-61
2023/01/05 04:36:59;;;;;;;0.90;0.50;;;;;;;;;;4985949;28;20476;-59
2023/01/05 04:39:25;;;;;;;0.90;0.50;;;;;;;;;;5007984;28;20481;-58
2023/01/05 04:41:51;;;;;;;0.90;0.60;;;;;;;;;;5014310;28;20468;-60
2023/01/05 04:44:17;;;;;;;1.00;0.50;;;;;;;;;;5012335;28;20294;-58
2023/01/05 04:46:43;;;;;;;1.43;0.50;;;;;;;;;;4995291;28;20491;-61
2023/01/05 04:49:09;;;;;;;0.90;0.50;;;;;;;;;;5004815;28;20556;-59
2023/01/05 04:51:36;;;;;;;1.00;0.53;;;;;;;;;;4982756;28;20955;-60
2023/01/05 04:54:02;;;;;;;1.13;0.50;;;;;;;;;;4992969;28;20438;-61
2023/01/05 04:56:28;;;;;;;0.90;0.50;;;;;;;;;;4998853;28;20428;-62
2023/01/05 04:58:54;;;;;;;0.90;0.50;;;;;;;;;;5005688;28;20510;-59
2023/01/05 05:01:20;;;;;;;0.90;0.50;;;;;;;;;;5011116;28;20436;-60
2023/01/05 05:03:46;;;;;;;0.90;0.50;;;;;;;;;;4981568;28;20478;-60
2023/01/05 05:06:12;;;;;;;0.90;0.50;;;;;;;;;;5019045;28;20462;-60
2023/01/05 05:08:38;;;;;;;1.00;0.60;;;;;;;;;;4980324;28;20452;-59
2023/01/05 05:11:04;;;;;;;0.90;0.50;;;;;;;;;;5009690;28;20439;-59
2023/01/05 05:13:30;;;;;;;1.03;0.50;;;;;;;;;;5002209;28;20422;-60
2023/01/05 05:15:56;;;;;;;1.20;0.50;;;;;;;;;;5018776;28;20498;-59
2023/01/05 05:18:23;;;;;;;1.03;0.60;;;;;;;;;;5006027;28;20553;-61
2023/01/05 05:20:49;;;;;;;1.00;0.50;;;;;;;;;;5015535;28;20196;-59
2023/01/05 05:23:16;;;;;;;1.27;0.50;;;;;;;;;;4973100;28;24877;-60
2023/01/05 05:25:41;;;;;;;0.90;0.50;;;;;;;;;;4996877;28;20494;-59
2023/01/05 05:28:07;;;;;;;0.90;0.60;;;;;;;;;;4996916;28;20440;-61
2023/01/05 05:30:33;;;;;;;0.90;0.50;;;;;;;;;;5002635;28;20834;-59
2023/01/05 05:32:59;;;;;;;0.90;0.50;;;;;;;;;;5016923;28;20471;-61
2023/01/05 05:35:25;;;;;;;1.00;0.60;;;;;;;;;;5009369;28;20463;-61
2023/01/05 05:37:51;;;;;;;1.00;0.50;;;;;;;;;;5010603;28;20479;-60
2023/01/05 05:40:17;;;;;;;0.90;0.50;;;;;;;;;;4986010;28;20440;-59
2023/01/05 05:42:43;;;;;;;1.00;0.40;;;;;;;;;;5014603;28;20173;-59
2023/01/05 05:45:09;;;;;;;0.90;0.50;;;;;;;;;;4981993;28;20486;-61
2023/01/05 05:47:35;;;;;;;0.90;0.40;;;;;;;;;;5014016;28;20425;-60
2023/01/05 05:50:01;;;;;;;1.33;0.63;;;;;;;;;;4986233;28;20436;-61
2023/01/05 05:52:27;;;;;;;0.90;0.50;;;;;;;;;;5009303;28;20428;-58
2023/01/05 05:54:53;;;;;;;1.37;0.67;;;;;;;;;;5006538;28;20458;-59
2023/01/05 05:57:19;;;;;;;0.90;0.60;;;;;;;;;;5009807;28;20437;-60
2023/01/05 05:59:45;;;;;;;0.90;0.60;;;;;;;;;;4948771;28;20199;-59
2023/01/05 06:02:11;;;;;;;0.90;0.40;;;;;;;;;;5009929;28;20428;-58
2023/01/05 06:04:37;;;;;;;0.90;0.50;;;;;;;;;;5004051;28;20431;-59
2023/01/05 06:07:03;;;;;;;1.10;0.60;;;;;;;;;;5004260;28;22305;-58
2023/01/05 06:09:29;;;;;;;0.90;0.50;;;;;;;;;;4984251;28;20444;-59
2023/01/05 06:11:55;;;;;;;0.90;0.50;;;;;;;;;;5010236;28;20197;-59
2023/01/05 06:14:21;;;;;;;34.03;1.60;;;;;;;;;;4985659;28;20527;-59
2023/01/05 06:16:47;;;;;;;0.90;0.50;;;;;;;;;;5006232;28;20244;-58
2023/01/05 06:19:13;;;;;;;0.90;0.50;;;;;;;;;;5001643;28;20482;-59
2023/01/05 06:21:39;;;;;;;1.27;0.60;;;;;;;;;;5008632;28;20462;-59
2023/01/05 06:24:05;;;;;;;0.90;0.50;;;;;;;;;;4996740;28;21221;-58
2023/01/05 06:26:31;;;;;;;1.00;0.50;;;;;;;;;;5015504;28;20411;-59
2023/01/05 06:28:56;;;;;;;1.93;0.60;;;;;;;;;;4980559;28;20467;-59
2023/01/05 06:31:22;;;;;;;4.50;1.43;;;;;;;;;;5012349;28;20552;-56
2023/01/05 06:33:48;;;;;;;1.00;0.60;;;;;;;;;;4961281;28;20888;-57
2023/01/05 06:36:14;;;;;;;1.00;0.50;;;;;;;;;;5006435;28;20515;-59
2023/01/05 06:38:40;;;;;;;1.10;0.80;;;;;;;;;;4987886;28;20480;-57
2023/01/05 06:41:06;;;;;;;1.93;0.70;;;;;;;;;;5011224;28;20162;-61
2023/01/05 06:43:32;;;;;;;1.00;0.60;;;;;;;;;;5010839;28;20521;-57
2023/01/05 06:45:58;;;;;;;0.90;0.60;;;;;;;;;;5012057;28;20523;-58
2023/01/05 06:48:24;;;;;;;2.47;0.73;;;;;;;;;;4987434;28;20443;-60
2023/01/05 06:50:50;;;;;;;2.60;0.77;;;;;;;;;;5003149;28;20466;-59
2023/01/05 06:53:16;;;;;;;1.80;0.90;;;;;;;;;;5004542;28;20524;-59
2023/01/05 06:55:43;;;;;;;1.40;0.77;;;;;;;;;;5018269;28;20431;-58
2023/01/05 06:58:09;;;;;;;2.37;0.70;;;;;;;;;;4973125;28;20213;-58
2023/01/05 07:00:35;;;;;;;1.00;0.60;;;;;;;;;;5003682;28;20446;-57
2023/01/05 07:03:14;;;;;;;2.20;0.73;;;;;;;;;;4974768;28;21203;-61
2023/01/05 07:05:40;;;;;;;1.70;1.20;;;;;;;;;;4996403;28;20473;-61
2023/01/05 07:08:06;;;;;;;2.00;1.03;;;;;;;;;;5012045;28;20428;-61
2023/01/05 07:10:32;;;;;;;1.97;1.10;;;;;;;;;;4980671;28;20534;-62
2023/01/05 07:12:58;;;;;;;2.00;1.10;;;;;;;;;;5010246;28;20466;-63
2023/01/05 07:15:24;;;;;;;1.50;0.70;;;;;;;;;;5011517;28;20435;-62
2023/01/05 07:17:50;;;;;;;2.70;1.07;;;;;;;;;;5015578;28;20236;-62
2023/01/05 07:20:16;;;;;;;7.93;1.57;;;;;;;;;;4985578;28;20432;-63
2023/01/05 07:22:42;;;;;;;4.23;1.00;;;;;;;;;;5011400;28;20558;-62
2023/01/05 07:25:08;;;;;;;6.00;1.03;;;;;;;;;;5005811;28;20495;-61
2023/01/05 07:27:34;;;;;;;2.17;0.90;;;;;;;;;;5008000;28;20440;-59
2023/01/05 07:30:00;;;;;;;2.70;1.43;;;;;;;;;;4985817;28;20443;-61
2023/01/05 07:32:26;;;;;;;3.20;1.20;;;;;;;;;;5014131;28;20481;-60
2023/01/05 07:34:52;;;;;;;1.80;1.03;;;;;;;;;;4967878;28;20444;-64
2023/01/05 07:37:18;;;;;;;1.87;1.00;;;;;;;;;;5014526;28;20447;-66
2023/01/05 07:39:44;;;;;;;2.33;1.10;;;;;;;;;;5003742;28;20444;-61
2023/01/05 07:42:10;;;;;;;2.40;0.90;;;;;;;;;;5007522;28;20538;-60
2023/01/05 07:44:36;;;;;;;1.37;0.90;;;;;;;;;;5005521;28;20977;-63
2023/01/05 07:47:03;;;;;;;2.17;1.10;;;;;;;;;;5008233;28;20495;-62
2023/01/05 07:49:29;;;;;;;1.80;1.07;;;;;;;;;;4986442;28;20445;-64
2023/01/05 07:51:55;;;;;;;3.10;1.10;;;;;;;;;;5005579;28;20447;-63
2023/01/05 07:54:21;;;;;;;3.80;1.53;;;;;;;;;;5004155;28;20530;-61
2023/01/05 07:56:47;;;;;;;3.17;1.10;;;;;;;;;;5008113;28;20205;-61
2023/01/05 07:59:13;;;;;;;3.37;1.47;;;;;;;;;;4988826;28;20480;-61
2023/01/05 08:01:39;;;;;;;3.23;0.90;;;;;;;;;;5001334;28;20448;-60
2023/01/05 08:04:05;;;;;;;1.77;1.30;;;;;;;;;;5011193;28;20438;-64
2023/01/05 08:06:32;;;;;;;5.63;0.90;;;;;;;;;;5010801;28;20460;-62
2023/01/05 08:10:27;;;;;;;5.03;1.30;;;;;;;;;;4981134;28;21034;-62
2023/01/05 08:11:44;;;;;;;2.43;1.13;;;;;;;;;;5009156;28;20535;-62
2023/01/05 08:14:10;;;;;;;2.70;1.20;;;;;;;;;;5005997;28;21053;-61
2023/01/05 08:16:36;;;;;;;2.53;1.07;;;;;;;;;;5008414;28;20938;-60
2023/01/05 08:19:02;;;;;;;2.80;1.30;;;;;;;;;;4987954;28;20475;-64
2023/01/05 08:21:28;;;;;;;2.50;1.33;;;;;;;;;;4996502;28;20436;-60
2023/01/05 08:23:53;;;;;;;5.40;1.07;;;;;;;;;;5011243;28;20439;-66
2023/01/05 08:26:21;;;;;;;8.40;1.47;;;;;;;;;;5010814;28;20427;-63
2023/01/05 08:28:47;;;;;;;3.27;1.20;;;;;;;;;;5013320;28;20435;-62
2023/01/05 08:31:15;;;;;;;3.40;1.23;;;;;;;;;;5013694;28;20512;-62
2023/01/05 08:33:41;;;;;;;3.30;1.50;;;;;;;;;;5014941;28;20490;-62
2023/01/05 08:36:10;;;;;;;3.87;1.10;;;;;;;;;;5008078;28;20454;-62
2023/01/05 08:38:36;;;;;;;5.63;1.03;;;;;;;;;;5007383;28;20471;-63
2023/01/05 08:41:02;;;;;;;3.33;1.10;;;;;;;;;;4987577;28;20490;-63
2023/01/05 08:43:28;;;;;;;1.50;0.90;;;;;;;;;;5013306;28;20830;-64
2023/01/05 08:45:54;;;;;;;3.30;1.40;;;;;;;;;;4964098;28;20443;-63
2023/01/05 08:48:20;;;;;;;2.03;1.47;;;;;;;;;;5011707;28;20443;-63
2023/01/05 08:50:46;;;;;;;3.10;1.20;;;;;;;;;;4983682;28;20482;-62
2023/01/05 08:53:12;;;;;;;3.43;0.97;;;;;;;;;;5009441;28;20444;-63
2023/01/05 08:55:38;;;;;;;4.80;1.63;;;;;;;;;;4989063;28;20424;-63
2023/01/05 08:58:05;;;;;;;3.17;0.93;;;;;;;;;;5019174;28;20483;-62
2023/01/05 09:00:31;;;;;;;8.07;1.77;;;;;;;;;;5003428;28;20181;-64
2023/01/05 09:02:57;;;;;;;5.50;1.20;;;;;;;;;;5011746;28;20505;-63
2023/01/05 09:05:23;;;;;;;5.63;1.50;;;;;;;;;;5006186;28;20530;-64
2023/01/05 09:07:49;;;;;;;2.30;1.43;;;;;;;;;;5014280;28;20447;-63
2023/01/05 09:10:15;;;;;;;6.27;1.83;;;;;;;;;;4987206;28;20428;-62
2023/01/05 09:12:41;;;;;;;4.13;1.43;;;;;;;;;;5009695;28;20444;-64
2023/01/05 09:15:07;;;;;;;6.37;1.70;;;;;;;;;;5002353;28;20449;-61
2023/01/05 09:17:34;;;;;;;3.83;1.43;;;;;;;;;;5011164;28;20432;-62
2023/01/05 09:20:02;;;;;;;5.77;1.20;;;;;;;;;;4968633;28;20453;-63
2023/01/05 09:22:28;;;;;;;10.53;1.67;;;;;;;;;;5016417;28;20978;-60
2023/01/05 09:24:54;;;;;;;3.73;1.40;;;;;;;;;;5003018;28;20519;-59
2023/01/05 09:27:20;;;;;;;5.07;1.80;;;;;;;;;;5004755;28;20468;-62
2023/01/05 09:29:46;;;;;;;5.10;1.90;;;;;;;;;;4985676;28;20451;-62
2023/01/05 09:32:12;;;;;;;4.83;1.83;;;;;;;;;;5015285;28;20189;-61
2023/01/05 09:34:38;;;;;;;6.73;2.70;;;;;;;;;;5011363;28;21292;-61
2023/01/05 09:37:04;;;;;;;4.20;1.20;;;;;;;;;;5018868;28;20431;-62
2023/01/05 09:39:30;;;;;;;9.30;1.53;;;;;;;;;;4986368;28;20472;-59
2023/01/05 09:41:57;;;;;;;4.40;2.03;;;;;;;;;;5007240;28;20817;-61
2023/01/05 09:44:29;;;;;;;7.27;2.67;;;;;;;;;;5004199;28;20444;-61
2023/01/05 09:46:56;;;;;;;4.53;1.83;;;;;;;;;;5015376;28;21014;-63
2023/01/05 09:49:22;;;;;;;3.93;1.90;;;;;;;;;;4968405;28;20451;-61
2023/01/05 09:51:49;;;;;;;10.70;2.33;;;;;;;;;;5017514;28;20504;-59
2023/01/05 09:54:16;;;;;;;8.67;2.03;;;;;;;;;;4983651;28;20420;-60
2023/01/05 09:56:43;;;;;;;7.40;1.63;;;;;;;;;;4994487;28;20440;-62
2023/01/05 09:59:14;;;;;;;4.40;1.67;;;;;;;;;;4970425;28;20483;-61
2023/01/05 10:01:40;;;;;;;7.93;2.57;;;;;;;;;;5003375;28;21179;-67
2023/01/05 10:04:18;;;;;;;6.27;1.90;;;;;;;;;;5008512;28;20431;-62
2023/01/05 10:06:45;;;;;;;9.57;2.07;;;;;;;;;;5016063;28;20450;-61
2023/01/05 10:09:16;;;;;;;4.90;1.80;;;;;;;;;;4989725;28;20977;-62
2023/01/05 10:14:38;;;;;;;5.20;2.57;;;;;;;;;;4992648;28;20527;-62
2023/01/05 10:17:07;;;;;;;7.30;2.60;;;;;;;;;;5008233;28;20452;-59
2023/01/05 10:19:33;;;;;;;9.20;1.30;;;;;;;;;;4943281;28;21134;-63
2023/01/05 10:22:05;;;;;;;6.23;2.10;;;;;;;;;;5019307;28;20408;-62
2023/01/05 10:24:37;;;;;;;8.70;4.70;;;;;;;;;;4989743;28;20512;-63
2023/01/05 10:27:15;;;;;;;5.23;1.73;;;;;;;;;;5016497;28;20517;-62
2023/01/05 10:29:47;;;;;;;8.73;2.43;;;;;;;;;;4996614;28;20455;-62
2023/01/05 10:32:19;;;;;;;10.53;1.90;;;;;;;;;;4986448;28;21717;-62
2023/01/05 10:34:51;;;;;;;18.30;2.63;;;;;;;;;;5004330;28;20447;-62
2023/01/05 10:37:30;;;;;;;4.57;1.40;;;;;;;;;;5016227;28;20415;-62
2023/01/05 10:40:27;;;;;;;4.43;2.10;;;;;;;;;;4991583;28;20465;-61
2023/01/05 10:42:53;;;;;;;9.37;1.70;;;;;;;;;;4972167;28;20433;-60
2023/01/05 10:45:19;;;;;;;6.77;2.63;;;;;;;;;;5010430;28;20479;-62
2023/01/05 10:47:45;;;;;;;7.27;1.90;;;;;;;;;;5009664;28;20271;-63
2023/01/05 10:50:26;;;;;;;4.30;1.60;;;;;;;;;;4984928;28;20443;-63
2023/01/05 10:52:52;;;;;;;6.40;1.60;;;;;;;;;;5005318;28;20432;-61
2023/01/05 10:55:18;;;;;;;4.63;1.60;;;;;;;;;;4967853;28;20960;-62
2023/01/05 10:57:44;;;;;;;8.60;1.60;;;;;;;;;;4999111;28;20594;-62
2023/01/05 11:00:12;;;;;;;9.77;1.80;;;;;;;;;;4993760;28;20463;-62
2023/01/05 11:02:40;;;;;;;11.23;2.20;;;;;;;;;;5005413;28;20443;-64
2023/01/05 11:05:09;;;;;;;6.97;2.13;;;;;;;;;;5000728;28;20430;-63
2023/01/05 11:07:52;;;;;;;3.47;1.53;;;;;;;;;;5007986;28;20763;-63
2023/01/05 11:10:22;;;;;;;8.37;2.50;;;;;;;;;;4979572;28;20462;-61
2023/01/05 11:12:52;;;;;;;9.37;2.33;;;;;;;;;;5006172;28;20424;-61
2023/01/05 11:15:18;;;;;;;9.07;2.10;;;;;;;;;;4988190;28;20436;-62
2023/01/05 11:17:45;;;;;;;8.60;1.63;;;;;;;;;;5010602;28;20777;-61
2023/01/05 11:20:14;;;;;;;5.23;1.50;;;;;;;;;;4987571;28;20443;-61
2023/01/05 11:22:42;;;;;;;4.77;1.93;;;;;;;;;;5012644;28;20483;-61
2023/01/05 11:25:18;;;;;;;6.37;2.00;;;;;;;;;;5004047;28;20983;-61
2023/01/05 11:27:44;;;;;;;6.53;1.67;;;;;;;;;;5008688;28;20475;-61
2023/01/05 11:30:16;;;;;;;8.10;2.20;;;;;;;;;;4966844;28;20570;-61
2023/01/05 11:32:42;;;;;;;5.83;2.17;;;;;;;;;;4980034;28;20486;-61
2023/01/05 11:35:17;;;;;;;7.03;2.33;;;;;;;;;;5001838;28;20444;-61
2023/01/05 11:37:44;;;;;;;5.93;1.50;;;;;;;;;;5003873;28;20478;-62
2023/01/05 11:40:14;;;;;;;9.23;1.77;;;;;;;;;;5017835;28;20432;-62
2023/01/05 11:42:42;;;;;;;10.73;2.30;;;;;;;;;;4962461;28;20448;-62
2023/01/05 11:45:21;;;;;;;6.67;2.10;;;;;;;;;;5008413;28;20940;-61
2023/01/05 11:48:02;;;;;;;8.00;2.87;;;;;;;;;;4969407;28;20446;-63
2023/01/05 11:50:28;;;;;;;10.77;2.03;;;;;;;;;;5004288;28;20463;-63
2023/01/05 11:52:58;;;;;;;8.10;2.47;;;;;;;;;;4966418;28;20956;-62
2023/01/05 11:55:29;;;;;;;6.47;1.60;;;;;;;;;;5008581;28;21007;-64
2023/01/05 11:57:56;;;;;;;6.70;1.83;;;;;;;;;;5003945;28;20475;-62
2023/01/05 12:00:26;;;;;;;4.40;1.70;;;;;;;;;;4992168;28;20431;-63
2023/01/05 12:02:55;;;;;;;8.90;2.90;;;;;;;;;;4946711;28;20448;-62
2023/01/05 12:05:26;;;;;;;10.80;1.90;;;;;;;;;;5012838;28;20425;-61
2023/01/05 12:07:55;;;;;;;4.10;1.40;;;;;;;;;;5016584;28;20457;-62
2023/01/05 12:10:21;;;;;;;9.33;2.00;;;;;;;;;;5003553;28;20416;-62
2023/01/05 12:12:50;;;;;;;8.30;1.97;;;;;;;;;;4988322;28;20435;-62
2023/01/05 12:15:28;;;;;;;10.93;2.37;;;;;;;;;;5006280;28;20483;-62
2023/01/05 12:18:00;;;;;;;3.80;1.63;;;;;;;;;;4987863;28;20507;-62
2023/01/05 12:20:29;;;;;;;5.07;2.00;;;;;;;;;;5008767;28;20530;-62
2023/01/05 12:23:05;;;;;;;8.20;2.37;;;;;;;;;;4986199;28;20495;-61
2023/01/05 12:25:31;;;;;;;10.90;2.80;;;;;;;;;;5012183;28;20423;-62
2023/01/05 12:28:03;;;;;;;6.07;1.67;;;;;;;;;;5015601;28;21028;-63
2023/01/05 12:30:30;;;;;;;5.30;2.90;;;;;;;;;;5013645;28;20287;-62
2023/01/05 12:33:00;;;;;;;7.20;2.70;;;;;;;;;;4967355;28;20501;-63
2023/01/05 12:35:36;;;;;;;9.80;3.53;;;;;;;;;;4985541;28;20443;-61
2023/01/05 12:38:22;;;;;;;7.20;1.90;;;;;;;;;;4985084;28;20475;-61
2023/01/05 12:41:03;;;;;;;3.27;2.00;;;;;;;;;;5006496;28;20439;-63
2023/01/05 12:44:01;;;;;;;5.40;1.73;;;;;;;;;;5011968;28;20428;-64
2023/01/05 12:46:42;;;;;;;6.30;2.20;;;;;;;;;;4973183;28;20455;-63
2023/01/05 12:49:13;;;;;;;4.50;2.00;;;;;;;;;;5011434;28;20432;-64
2023/01/05 12:51:41;;;;;;;8.90;2.27;;;;;;;;;;4989107;28;20527;-62
2023/01/05 12:54:09;;;;;;;7.70;1.93;;;;;;;;;;5008417;28;20440;-63
2023/01/05 12:56:38;;;;;;;5.27;2.10;;;;;;;;;;4991875;28;20432;-62
2023/01/05 12:59:10;;;;;;;8.47;2.30;;;;;;;;;;5004968;28;20518;-62
2023/01/05 13:01:38;;;;;;;6.43;1.87;;;;;;;;;;4995216;28;20503;-60
2023/01/05 13:04:05;;;;;;;10.30;2.47;;;;;;;;;;4977023;28;20429;-62
2023/01/05 13:06:33;;;;;;;7.47;2.87;;;;;;;;;;4960933;28;21322;-57
2023/01/05 13:09:02;;;;;;;6.97;2.20;;;;;;;;;;4981927;28;21101;-60
2023/01/05 13:11:31;;;;;;;5.50;1.93;;;;;;;;;;5008340;28;20942;-61
2023/01/05 13:14:03;;;;;;;7.50;2.47;;;;;;;;;;4991000;28;20444;-62
2023/01/05 13:16:30;;;;;;;7.83;1.90;;;;;;;;;;4966408;28;21035;-63
2023/01/05 13:19:09;;;;;;;5.87;1.70;;;;;;;;;;4995451;28;20483;-60
2023/01/05 13:21:35;;;;;;;4.83;1.93;;;;;;;;;;4984148;28;22906;-65
2023/01/05 13:24:06;;;;;;;12.10;2.27;;;;;;;;;;5004881;28;20736;-62
2023/01/05 13:26:32;;;;;;;10.70;3.50;;;;;;;;;;4968498;28;20449;-62
2023/01/05 13:28:59;;;;;;;5.83;2.10;;;;;;;;;;5007544;28;20487;-62
2023/01/05 13:31:25;;;;;;;4.70;1.47;;;;;;;;;;4993047;28;20514;-62
2023/01/05 13:33:57;;;;;;;10.93;3.00;;;;;;;;;;5006530;28;20439;-67
2023/01/05 13:36:23;;;;;;;6.50;2.30;;;;;;;;;;5009098;28;20509;-61
2023/01/05 13:39:09;;;;;;;11.43;2.50;;;;;;;;;;5012217;28;20484;-60
2023/01/05 13:41:38;;;;;;;7.70;3.30;;;;;;;;;;4960216;28;24929;-62
2023/01/05 13:44:24;;;;;;;9.40;2.00;;;;;;;;;;5008982;28;20489;-64
2023/01/05 13:47:03;;;;;;;7.77;3.70;;;;;;;;;;5001298;28;20999;-62
2023/01/05 13:49:38;;;;;;;7.83;2.87;;;;;;;;;;5011973;28;20559;-61
2023/01/05 13:52:09;;;;;;;8.30;2.60;;;;;;;;;;4981304;28;20435;-61
2023/01/05 13:54:38;;;;;;;9.27;2.30;;;;;;;;;;4984604;28;20437;-61
2023/01/05 13:57:07;;;;;;;7.27;1.97;;;;;;;;;;4989713;28;20641;-61
2023/01/05 13:59:33;;;;;;;9.50;3.20;;;;;;;;;;5011318;28;20515;-64
2023/01/05 14:01:59;;;;;;;6.20;2.93;;;;;;;;;;4990283;28;20463;-60
2023/01/05 14:04:25;;;;;;;12.07;2.60;;;;;;;;;;4996718;28;20172;-62
2023/01/05 14:06:52;;;;;;;9.80;3.00;;;;;;;;;;5014911;28;20500;-62
2023/01/05 14:09:38;;;;;;;8.37;2.83;;;;;;;;;;4991149;28;20524;-62
2023/01/05 14:12:07;;;;;;;9.30;2.70;;;;;;;;;;4965071;28;20455;-63
2023/01/05 14:14:52;;;;;;;4.70;2.60;;;;;;;;;;5012298;28;20424;-62
2023/01/05 14:17:37;;;;;;;8.50;2.20;;;;;;;;;;5014481;28;20431;-60
2023/01/05 14:20:03;;;;;;;9.67;2.50;;;;;;;;;;5016002;28;20452;-63
2023/01/05 14:22:36;;;;;;;7.80;2.87;;;;;;;;;;4983222;28;22031;-61
2023/01/05 14:25:20;;;;;;;10.90;2.00;;;;;;;;;;5009087;28;20448;-64
2023/01/05 14:28:05;;;;;;;6.43;2.03;;;;;;;;;;4988921;28;21229;-63
2023/01/05 14:30:31;;;;;;;10.70;2.67;;;;;;;;;;5007801;28;20447;-61
2023/01/05 14:32:57;;;;;;;5.10;2.90;;;;;;;;;;4982801;28;20596;-61
2023/01/05 14:35:28;;;;;;;8.33;2.23;;;;;;;;;;4992134;28;20436;-62
2023/01/05 14:37:59;;;;;;;6.20;3.80;;;;;;;;;;4975257;28;20272;-62
2023/01/05 14:40:30;;;;;;;13.40;2.90;;;;;;;;;;5008383;28;20445;-63
2023/01/05 14:42:56;;;;;;;8.90;2.60;;;;;;;;;;4941006;28;21536;-64
2023/01/05 14:45:29;;;;;;;10.40;3.47;;;;;;;;;;4995359;28;20621;-62
2023/01/05 14:47:56;;;;;;;8.23;3.10;;;;;;;;;;5002697;28;20440;-61
2023/01/05 14:50:32;;;;;;;12.60;2.93;;;;;;;;;;4991543;28;20427;-63
2023/01/05 14:52:58;;;;;;;7.07;2.60;;;;;;;;;;4982739;28;20443;-63
2023/01/05 14:55:24;;;;;;;6.27;2.10;;;;;;;;;;5008206;28;20419;-60
2023/01/05 14:57:51;;;;;;;9.43;2.10;;;;;;;;;;5007745;28;20433;-61
2023/01/05 15:00:29;;;;;;;6.30;2.13;;;;;;;;;;5016852;28;20909;-64
2023/01/05 15:02:55;;;;;;;7.27;2.60;;;;;;;;;;4983789;28;20455;-61
2023/01/05 15:05:21;;;;;;;9.53;2.50;;;;;;;;;;5006614;28;20420;-63
2023/01/05 15:07:50;;;;;;;7.10;2.00;;;;;;;;;;5011028;28;20529;-61
2023/01/05 15:10:25;;;;;;;15.23;6.20;;;;;;;;;;5012924;28;20423;-65
2023/01/05 15:13:10;;;;;;;10.00;3.73;;;;;;;;;;4967979;28;20448;-62
2023/01/05 15:15:43;;;;;;;6.27;2.90;;;;;;;;;;5008890;28;20962;-62
2023/01/05 15:18:12;;;;;;;10.97;3.33;;;;;;;;;;4942678;28;20485;-63
2023/01/05 15:20:45;;;;;;;7.53;4.03;;;;;;;;;;5008982;28;20420;-62
2023/01/05 15:23:15;;;;;;;12.03;3.57;;;;;;;;;;4977924;28;20448;-61